Terminal Aerodrome Forecast
Issued by NWS Louisville, KY

Home | Current Version | Previous Version | Text Only | Print | Product List | Glossary On
Versions: 1 2 3 4 5 6 7 8 9 10 11 12 13 14 15 16 17 18
000
FTUS43 KLMK 231100
TAFSDF
TAF
KSDF 231110Z 2312/2418 VRB03KT P6SM BKN150
     FM231400 15006KT P6SM BKN130
     FM241300 18009KT P6SM BKN100=

USA.gov is the U.S. government's official web portal to all federal, state and local government web resources and services.